Time;durP1;ratioP1;P1;durP2;ratioP2;P2;SDS_P1;SDS_P2;PMS_P1;PMS_P2;Temp;Humidity;BMP_temperature;BMP_pressure;BME280_temperature;BME280_humidity;BME280_pressure;Samples;Min_cycle;Max_cycle;Signal;HPM_P1;HPM_P2
2023/12/16 00:01:06;;;;;;;14.85;5.88;;;;;;;;;;4913422;29;20036;-79
2023/12/16 00:03:32;;;;;;;13.73;3.33;;;;;;;;;;4901557;29;20127;-77
2023/12/16 00:05:59;;;;;;;13.38;2.00;;;;;;;;;;4911943;29;20028;-78
2023/12/16 00:08:25;;;;;;;6.18;1.55;;;;;;;;;;4914870;29;20035;-77
2023/12/16 00:10:52;;;;;;;7.30;1.40;;;;;;;;;;4901797;29;20123;-78
2023/12/16 00:13:18;;;;;;;9.48;2.80;;;;;;;;;;4908379;29;20123;-76
2023/12/16 00:15:44;;;;;;;11.65;1.95;;;;;;;;;;4907292;29;20032;-78
2023/12/16 00:18:10;;;;;;;9.05;1.38;;;;;;;;;;4910080;29;20453;-76
2023/12/16 00:20:36;;;;;;;13.15;2.17;;;;;;;;;;4910604;29;20037;-76
2023/12/16 00:23:02;;;;;;;5.15;1.60;;;;;;;;;;4903521;29;20043;-77
2023/12/16 00:25:28;;;;;;;11.15;1.73;;;;;;;;;;4908918;29;20032;-77
2023/12/16 00:27:54;;;;;;;12.23;1.77;;;;;;;;;;4907709;29;20035;-79
2023/12/16 00:30:20;;;;;;;10.48;1.90;;;;;;;;;;4906778;29;20037;-78
2023/12/16 00:32:46;;;;;;;6.68;2.00;;;;;;;;;;4912666;29;20041;-76
2023/12/16 00:35:12;;;;;;;13.00;2.72;;;;;;;;;;4900484;29;20157;-76
2023/12/16 00:37:38;;;;;;;8.63;1.88;;;;;;;;;;4904730;29;20187;-78
2023/12/16 00:40:05;;;;;;;9.88;2.20;;;;;;;;;;4912861;29;20047;-77
2023/12/16 00:42:31;;;;;;;15.73;3.05;;;;;;;;;;4912425;29;20044;-79
2023/12/16 00:44:57;;;;;;;9.00;2.00;;;;;;;;;;4896891;29;20495;-77
2023/12/16 00:47:23;;;;;;;9.52;2.03;;;;;;;;;;4901649;29;20394;-80
2023/12/16 00:49:49;;;;;;;12.27;1.92;;;;;;;;;;4912165;29;20085;-77
2023/12/16 00:52:15;;;;;;;8.95;1.75;;;;;;;;;;4897463;29;20518;-77
2023/12/16 00:54:41;;;;;;;7.97;1.92;;;;;;;;;;4896037;29;20463;-81
2023/12/16 00:57:07;;;;;;;12.55;2.42;;;;;;;;;;4911148;29;20529;-76
2023/12/16 00:59:34;;;;;;;8.45;2.58;;;;;;;;;;4907101;29;20406;-75
2023/12/16 01:02:00;;;;;;;7.78;1.60;;;;;;;;;;4913802;29;20363;-76
2023/12/16 01:04:26;;;;;;;11.07;2.78;;;;;;;;;;4908386;29;20074;-80
2023/12/16 01:06:52;;;;;;;15.18;3.33;;;;;;;;;;4899368;29;20692;-75
2023/12/16 01:09:18;;;;;;;10.00;2.85;;;;;;;;;;4898290;29;20032;-75
2023/12/16 01:11:44;;;;;;;11.10;2.33;;;;;;;;;;4911805;29;20059;-76
2023/12/16 01:14:10;;;;;;;7.75;2.72;;;;;;;;;;4905231;29;20032;-76
2023/12/16 01:16:36;;;;;;;10.73;2.60;;;;;;;;;;4926083;29;20091;-75
2023/12/16 01:19:02;;;;;;;11.43;2.13;;;;;;;;;;4902916;29;20037;-76
2023/12/16 01:21:28;;;;;;;13.48;3.33;;;;;;;;;;4914908;29;20040;-78
2023/12/16 01:23:54;;;;;;;13.65;2.80;;;;;;;;;;4906661;29;20058;-76
2023/12/16 01:26:20;;;;;;;13.15;2.85;;;;;;;;;;4914478;29;20076;-76
2023/12/16 01:28:46;;;;;;;13.70;2.88;;;;;;;;;;4907367;29;20171;-76
2023/12/16 01:31:12;;;;;;;11.95;2.30;;;;;;;;;;4904626;29;20072;-75
2023/12/16 01:33:38;;;;;;;11.15;2.15;;;;;;;;;;4908474;29;20032;-76
2023/12/16 01:36:05;;;;;;;14.40;2.08;;;;;;;;;;4896561;29;20107;-75
2023/12/16 01:38:31;;;;;;;8.02;1.98;;;;;;;;;;4907840;29;20421;-76
2023/12/16 01:40:57;;;;;;;9.35;1.73;;;;;;;;;;4901720;29;20490;-79
2023/12/16 01:43:23;;;;;;;9.98;1.98;;;;;;;;;;4903162;29;20809;-78
2023/12/16 01:45:55;;;;;;;11.45;3.22;;;;;;;;;;4912991;29;20016;-76
2023/12/16 01:48:21;;;;;;;11.60;1.73;;;;;;;;;;4912556;29;20024;-77
2023/12/16 01:50:47;;;;;;;10.23;2.00;;;;;;;;;;4899301;29;20029;-77
2023/12/16 01:53:13;;;;;;;10.48;1.88;;;;;;;;;;4909942;29;20051;-80
2023/12/16 01:55:39;;;;;;;10.55;1.75;;;;;;;;;;4907253;29;20038;-78
2023/12/16 01:58:05;;;;;;;14.10;2.28;;;;;;;;;;4908014;29;20035;-79
2023/12/16 02:00:32;;;;;;;8.45;1.20;;;;;;;;;;4908411;29;20027;-77
2023/12/16 02:02:58;;;;;;;12.88;2.42;;;;;;;;;;4933295;29;20054;-77
2023/12/16 02:05:24;;;;;;;12.00;1.90;;;;;;;;;;4901175;29;20044;-76
2023/12/16 02:07:50;;;;;;;8.30;1.80;;;;;;;;;;4901976;29;20048;-77
2023/12/16 02:10:16;;;;;;;9.45;2.28;;;;;;;;;;4908395;29;20036;-76
2023/12/16 02:12:43;;;;;;;11.98;1.63;;;;;;;;;;4896685;29;20040;-80
2023/12/16 02:15:09;;;;;;;20.92;2.92;;;;;;;;;;4913072;29;20083;-79
2023/12/16 02:17:35;;;;;;;12.07;2.00;;;;;;;;;;4903466;29;20119;-77
2023/12/16 02:20:01;;;;;;;13.73;2.05;;;;;;;;;;4904764;29;20075;-77
2023/12/16 02:22:27;;;;;;;18.83;2.53;;;;;;;;;;4895645;29;20025;-77
2023/12/16 02:24:53;;;;;;;11.27;2.17;;;;;;;;;;4896309;29;20040;-78
2023/12/16 02:27:20;;;;;;;13.10;2.13;;;;;;;;;;4904987;29;20092;-76
2023/12/16 02:29:46;;;;;;;12.15;3.47;;;;;;;;;;4907448;29;20067;-77
2023/12/16 02:32:12;;;;;;;11.43;1.95;;;;;;;;;;4911728;29;20491;-78
2023/12/16 02:34:38;;;;;;;10.50;2.53;;;;;;;;;;4913044;29;20482;-77
2023/12/16 02:37:06;;;;;;;15.32;2.55;;;;;;;;;;4902669;29;20475;-77
2023/12/16 02:39:33;;;;;;;17.30;2.88;;;;;;;;;;4902116;29;20051;-76
2023/12/16 02:41:59;;;;;;;22.75;3.15;;;;;;;;;;4905532;29;20039;-78
2023/12/16 02:44:25;;;;;;;13.70;3.42;;;;;;;;;;4903184;29;20073;-77
2023/12/16 02:46:51;;;;;;;20.88;2.30;;;;;;;;;;4895735;29;20398;-77
2023/12/16 02:49:17;;;;;;;15.05;2.08;;;;;;;;;;4899961;29;20029;-77
2023/12/16 02:51:43;;;;;;;9.18;2.00;;;;;;;;;;4900065;29;20046;-77
2023/12/16 02:54:09;;;;;;;20.13;4.45;;;;;;;;;;4894472;29;20032;-77
2023/12/16 02:56:35;;;;;;;13.95;1.80;;;;;;;;;;4896564;29;20032;-79
2023/12/16 02:59:01;;;;;;;10.73;2.55;;;;;;;;;;4912837;29;20059;-77
2023/12/16 03:01:27;;;;;;;18.10;2.47;;;;;;;;;;4913422;29;20052;-77
2023/12/16 03:03:53;;;;;;;13.23;1.90;;;;;;;;;;4897448;29;20562;-77
2023/12/16 03:06:20;;;;;;;12.43;2.97;;;;;;;;;;4905242;29;20028;-77
2023/12/16 03:08:46;;;;;;;15.73;1.88;;;;;;;;;;4898108;29;20032;-77
2023/12/16 03:11:13;;;;;;;14.63;3.15;;;;;;;;;;4903189;29;20087;-77
2023/12/16 03:13:39;;;;;;;16.98;2.50;;;;;;;;;;4905531;29;20024;-77
2023/12/16 03:16:05;;;;;;;14.38;2.47;;;;;;;;;;4915267;29;20028;-77
2023/12/16 03:18:31;;;;;;;13.90;2.67;;;;;;;;;;4901875;29;20052;-76
2023/12/16 03:20:57;;;;;;;12.95;2.25;;;;;;;;;;4896551;29;20111;-77
2023/12/16 03:23:23;;;;;;;21.65;2.95;;;;;;;;;;4909462;29;20414;-77
2023/12/16 03:25:49;;;;;;;11.82;2.30;;;;;;;;;;4894427;29;20028;-77
2023/12/16 03:28:15;;;;;;;26.52;5.13;;;;;;;;;;4906813;29;20033;-77
2023/12/16 03:30:41;;;;;;;15.43;2.38;;;;;;;;;;4915645;29;20042;-77
2023/12/16 03:33:08;;;;;;;11.32;2.85;;;;;;;;;;4917637;29;20033;-77
2023/12/16 03:35:34;;;;;;;14.02;3.20;;;;;;;;;;4905214;29;20028;-80
2023/12/16 03:38:03;;;;;;;16.63;2.67;;;;;;;;;;4911260;29;20526;-76
2023/12/16 03:40:29;;;;;;;16.30;2.53;;;;;;;;;;4903881;29;20040;-77
2023/12/16 03:42:56;;;;;;;14.45;2.53;;;;;;;;;;4903938;29;20029;-78
2023/12/16 03:45:22;;;;;;;19.15;2.88;;;;;;;;;;4898229;29;20037;-78
2023/12/16 03:47:49;;;;;;;19.45;2.75;;;;;;;;;;4907780;29;20036;-77
2023/12/16 03:50:15;;;;;;;13.25;2.40;;;;;;;;;;4896481;29;20064;-79
2023/12/16 03:52:41;;;;;;;14.32;2.70;;;;;;;;;;4894180;29;20369;-78
2023/12/16 03:55:07;;;;;;;21.30;2.50;;;;;;;;;;4901703;29;20127;-78
2023/12/16 03:57:33;;;;;;;16.20;2.30;;;;;;;;;;4905101;29;20029;-77
2023/12/16 04:00:00;;;;;;;22.63;2.92;;;;;;;;;;4895090;29;20048;-76
2023/12/16 04:02:26;;;;;;;20.88;2.97;;;;;;;;;;4922455;29;20031;-77
2023/12/16 04:04:52;;;;;;;17.85;2.97;;;;;;;;;;4899136;29;20040;-77
2023/12/16 04:07:18;;;;;;;12.80;3.42;;;;;;;;;;4902277;29;20040;-77
2023/12/16 04:09:44;;;;;;;22.90;4.25;;;;;;;;;;4910863;29;20043;-76
2023/12/16 04:12:11;;;;;;;17.77;2.33;;;;;;;;;;4901833;29;20124;-76
2023/12/16 04:14:40;;;;;;;17.20;3.35;;;;;;;;;;4904228;29;20108;-78
2023/12/16 04:17:06;;;;;;;13.20;2.97;;;;;;;;;;4918994;29;20028;-76
2023/12/16 04:19:32;;;;;;;15.98;2.40;;;;;;;;;;4898737;29;20046;-76
2023/12/16 04:21:58;;;;;;;18.02;2.58;;;;;;;;;;4904644;29;20029;-77
2023/12/16 04:24:24;;;;;;;22.83;2.42;;;;;;;;;;4909264;29;20050;-77
2023/12/16 04:26:51;;;;;;;20.55;3.92;;;;;;;;;;4897604;29;20032;-77
2023/12/16 04:29:17;;;;;;;16.73;2.65;;;;;;;;;;4909538;29;20036;-77
2023/12/16 04:31:43;;;;;;;20.20;3.47;;;;;;;;;;4913088;29;20051;-77
2023/12/16 04:34:09;;;;;;;25.48;3.13;;;;;;;;;;4909394;29;20039;-77
2023/12/16 04:36:35;;;;;;;22.40;3.55;;;;;;;;;;4898156;29;20037;-78
2023/12/16 04:39:07;;;;;;;25.48;3.78;;;;;;;;;;4914825;29;20438;-77
2023/12/16 04:41:33;;;;;;;19.55;3.30;;;;;;;;;;4907013;29;20414;-78
2023/12/16 04:43:59;;;;;;;23.23;3.28;;;;;;;;;;4897970;29;20032;-76
2023/12/16 04:46:25;;;;;;;24.90;3.70;;;;;;;;;;4915872;29;20063;-77
2023/12/16 04:48:51;;;;;;;25.95;4.13;;;;;;;;;;4906039;29;20132;-78
2023/12/16 04:51:18;;;;;;;22.45;3.15;;;;;;;;;;4907592;29;20506;-72
2023/12/16 04:53:44;;;;;;;26.27;5.40;;;;;;;;;;4911313;29;20020;-76
2023/12/16 04:56:10;;;;;;;51.13;21.73;;;;;;;;;;4899104;29;20035;-74
2023/12/16 04:58:36;;;;;;;27.30;4.90;;;;;;;;;;4903740;29;20663;-75
2023/12/16 05:01:03;;;;;;;25.15;4.88;;;;;;;;;;4908666;29;20052;-75
2023/12/16 05:03:29;;;;;;;36.05;5.63;;;;;;;;;;4905010;29;20052;-77
2023/12/16 05:05:55;;;;;;;23.02;3.47;;;;;;;;;;4910882;29;20482;-76
2023/12/16 05:08:22;;;;;;;25.10;3.78;;;;;;;;;;4915149;29;20395;-78
2023/12/16 05:10:48;;;;;;;20.98;3.33;;;;;;;;;;4899181;29;20119;-77
2023/12/16 05:13:15;;;;;;;17.33;3.30;;;;;;;;;;4901160;29;20033;-77
2023/12/16 05:15:41;;;;;;;25.75;4.57;;;;;;;;;;4919820;29;20502;-77
2023/12/16 05:18:07;;;;;;;24.23;4.47;;;;;;;;;;4902909;29;20062;-77
2023/12/16 05:20:33;;;;;;;31.05;5.25;;;;;;;;;;4909719;29;20078;-77
2023/12/16 05:22:59;;;;;;;21.80;3.97;;;;;;;;;;4905961;29;20036;-77
2023/12/16 05:25:28;;;;;;;26.10;4.90;;;;;;;;;;4905694;29;20028;-77
2023/12/16 05:27:55;;;;;;;28.05;4.35;;;;;;;;;;4907507;29;20052;-76
2023/12/16 05:30:21;;;;;;;22.15;5.00;;;;;;;;;;4907160;29;20119;-78
2023/12/16 05:32:47;;;;;;;29.17;5.53;;;;;;;;;;4913558;29;20049;-77
2023/12/16 05:35:13;;;;;;;36.20;5.00;;;;;;;;;;4895004;29;20043;-77
2023/12/16 05:37:40;;;;;;;26.50;5.13;;;;;;;;;;4916487;29;20040;-77
2023/12/16 05:40:06;;;;;;;30.48;6.93;;;;;;;;;;4908667;29;20032;-78
2023/12/16 05:42:32;;;;;;;39.78;6.65;;;;;;;;;;4906691;29;20124;-78
2023/12/16 05:44:58;;;;;;;27.38;5.13;;;;;;;;;;4907521;29;20039;-79
2023/12/16 05:47:24;;;;;;;25.42;4.70;;;;;;;;;;4908002;29;20107;-78
2023/12/16 05:49:51;;;;;;;33.42;6.13;;;;;;;;;;4895778;29;20028;-78
2023/12/16 05:52:17;;;;;;;38.47;5.22;;;;;;;;;;4907803;29;20483;-78
2023/12/16 05:54:43;;;;;;;24.42;6.22;;;;;;;;;;4912071;29;20440;-79
2023/12/16 05:57:09;;;;;;;43.92;6.93;;;;;;;;;;4908004;29;20092;-80
2023/12/16 05:59:35;;;;;;;37.47;6.35;;;;;;;;;;4913480;29;20040;-77
2023/12/16 06:02:01;;;;;;;30.77;5.38;;;;;;;;;;4905575;29;20041;-78
2023/12/16 06:04:27;;;;;;;43.88;5.72;;;;;;;;;;4904919;29;20515;-77
2023/12/16 06:06:54;;;;;;;39.05;7.07;;;;;;;;;;4914734;29;20056;-77
2023/12/16 06:09:20;;;;;;;30.08;5.80;;;;;;;;;;4908392;29;20091;-77
2023/12/16 06:11:46;;;;;;;37.28;5.55;;;;;;;;;;4907596;29;20032;-76
2023/12/16 06:14:12;;;;;;;38.03;7.03;;;;;;;;;;4909531;29;20459;-78
2023/12/16 06:16:38;;;;;;;42.28;7.38;;;;;;;;;;4914236;29;20036;-77
2023/12/16 06:19:04;;;;;;;41.25;6.32;;;;;;;;;;4896268;29;20044;-79
2023/12/16 06:21:30;;;;;;;30.10;6.68;;;;;;;;;;4897296;29;20044;-78
2023/12/16 06:23:58;;;;;;;30.05;5.82;;;;;;;;;;4900370;29;20031;-76
2023/12/16 06:26:24;;;;;;;45.78;7.18;;;;;;;;;;4900743;29;20059;-76
2023/12/16 06:28:51;;;;;;;38.72;6.38;;;;;;;;;;4909311;29;20432;-76
2023/12/16 06:31:17;;;;;;;46.03;8.35;;;;;;;;;;4904509;29;20040;-77
2023/12/16 06:33:43;;;;;;;37.20;7.07;;;;;;;;;;4910955;29;20040;-77
2023/12/16 06:36:09;;;;;;;41.20;7.05;;;;;;;;;;4895167;29;20067;-76
2023/12/16 06:38:35;;;;;;;35.85;6.28;;;;;;;;;;4904823;29;20111;-76
2023/12/16 06:41:03;;;;;;;30.85;7.25;;;;;;;;;;4919002;29;20415;-77
2023/12/16 06:43:29;;;;;;;35.25;6.65;;;;;;;;;;4910653;29;20356;-76
2023/12/16 06:45:55;;;;;;;37.05;6.15;;;;;;;;;;4913412;29;20474;-77
2023/12/16 06:48:21;;;;;;;35.72;7.78;;;;;;;;;;4909586;29;20028;-78
2023/12/16 06:50:49;;;;;;;45.80;7.60;;;;;;;;;;4900376;29;20036;-76
2023/12/16 06:53:15;;;;;;;34.50;7.97;;;;;;;;;;4912631;29;20024;-76
2023/12/16 06:55:41;;;;;;;37.67;7.95;;;;;;;;;;4906528;29;20036;-78
2023/12/16 06:58:07;;;;;;;40.42;9.25;;;;;;;;;;4928564;28;20382;-76
2023/12/16 07:00:33;;;;;;;49.08;11.18;;;;;;;;;;4903386;29;20552;-77
2023/12/16 07:03:00;;;;;;;28.77;7.22;;;;;;;;;;4932071;29;20075;-76
2023/12/16 07:05:27;;;;;;;38.30;7.03;;;;;;;;;;4903656;29;20033;-77
2023/12/16 07:07:54;;;;;;;42.92;9.23;;;;;;;;;;4911687;29;20035;-76
2023/12/16 07:10:20;;;;;;;40.90;7.75;;;;;;;;;;4911398;29;20032;-75
2023/12/16 07:12:46;;;;;;;45.22;9.07;;;;;;;;;;4903731;29;20044;-77
2023/12/16 07:15:12;;;;;;;33.88;7.30;;;;;;;;;;4906820;29;20051;-76
2023/12/16 07:17:40;;;;;;;39.90;8.18;;;;;;;;;;4897776;29;20032;-77
2023/12/16 07:20:06;;;;;;;39.70;8.00;;;;;;;;;;4895710;29;20040;-76
2023/12/16 07:22:32;;;;;;;37.65;8.18;;;;;;;;;;4902293;29;20036;-77
2023/12/16 07:24:58;;;;;;;36.65;8.07;;;;;;;;;;4907990;29;20045;-79
2023/12/16 07:27:24;;;;;;;37.67;7.40;;;;;;;;;;4910009;29;20032;-77
2023/12/16 07:29:52;;;;;;;32.25;6.43;;;;;;;;;;4911421;29;20028;-78
2023/12/16 07:32:18;;;;;;;33.80;7.40;;;;;;;;;;4909666;29;20032;-77
2023/12/16 07:34:45;;;;;;;48.13;9.43;;;;;;;;;;4900738;29;20056;-77
2023/12/16 07:37:11;;;;;;;42.88;8.30;;;;;;;;;;4906261;29;20043;-78
2023/12/16 07:39:37;;;;;;;40.20;7.20;;;;;;;;;;4910980;29;20028;-78
2023/12/16 07:42:03;;;;;;;44.72;8.23;;;;;;;;;;4900093;29;20056;-78
2023/12/16 07:44:29;;;;;;;34.03;6.88;;;;;;;;;;4906502;29;20486;-79
2023/12/16 07:46:55;;;;;;;38.35;6.85;;;;;;;;;;4909107;29;20501;-80
2023/12/16 07:49:25;;;;;;;47.00;8.35;;;;;;;;;;4897551;29;20035;-77
2023/12/16 07:51:51;;;;;;;46.20;8.10;;;;;;;;;;4897330;29;20036;-78
2023/12/16 07:54:17;;;;;;;47.08;8.25;;;;;;;;;;4908313;29;20115;-77
2023/12/16 07:56:43;;;;;;;51.20;9.40;;;;;;;;;;4908924;29;20462;-78
2023/12/16 07:59:09;;;;;;;53.85;9.32;;;;;;;;;;4906238;29;20036;-77
2023/12/16 08:01:35;;;;;;;44.25;7.50;;;;;;;;;;4905327;29;20031;-77
2023/12/16 08:04:01;;;;;;;48.10;8.60;;;;;;;;;;4906647;29;20044;-78
2023/12/16 08:06:27;;;;;;;39.13;7.25;;;;;;;;;;4905437;29;20025;-77
2023/12/16 08:08:53;;;;;;;45.70;8.45;;;;;;;;;;4909931;29;20120;-81
2023/12/16 08:11:19;;;;;;;33.03;7.28;;;;;;;;;;4913243;29;20467;-81
2023/12/16 08:13:45;;;;;;;38.63;6.97;;;;;;;;;;4913662;29;20032;-77
2023/12/16 08:16:11;;;;;;;32.88;6.20;;;;;;;;;;4915089;29;20064;-79
2023/12/16 08:18:37;;;;;;;56.20;10.82;;;;;;;;;;4902230;29;20059;-77
2023/12/16 08:21:04;;;;;;;37.20;7.00;;;;;;;;;;4901712;29;20071;-78
2023/12/16 08:23:30;;;;;;;50.22;9.43;;;;;;;;;;4909048;29;20037;-76
2023/12/16 08:25:56;;;;;;;44.88;8.85;;;;;;;;;;4914425;29;20020;-77
2023/12/16 08:28:23;;;;;;;41.85;7.07;;;;;;;;;;4905179;29;20122;-77
2023/12/16 08:30:52;;;;;;;38.05;6.78;;;;;;;;;;4914748;29;20031;-78
2023/12/16 08:33:18;;;;;;;35.30;7.78;;;;;;;;;;4905854;29;20032;-76
2023/12/16 08:35:44;;;;;;;40.05;7.25;;;;;;;;;;4901918;29;20451;-79
2023/12/16 08:38:11;;;;;;;41.88;7.43;;;;;;;;;;4905103;29;20043;-78
2023/12/16 08:40:38;;;;;;;38.20;6.80;;;;;;;;;;4903248;29;20041;-78
2023/12/16 08:43:04;;;;;;;53.08;8.00;;;;;;;;;;4909145;29;20493;-76
2023/12/16 08:45:30;;;;;;;46.50;8.73;;;;;;;;;;4904513;29;20095;-77
2023/12/16 08:47:56;;;;;;;48.78;8.60;;;;;;;;;;4913644;29;20031;-76
2023/12/16 08:50:23;;;;;;;40.90;8.45;;;;;;;;;;4912233;29;20036;-78
2023/12/16 08:52:49;;;;;;;48.58;8.48;;;;;;;;;;4915398;29;20025;-72
2023/12/16 08:55:15;;;;;;;41.95;7.13;;;;;;;;;;4913194;29;20483;-79
2023/12/16 08:57:41;;;;;;;52.90;7.70;;;;;;;;;;4909307;29;20035;-76
2023/12/16 09:00:11;;;;;;;36.22;7.25;;;;;;;;;;4915657;29;20048;-79
2023/12/16 09:02:37;;;;;;;47.88;7.15;;;;;;;;;;4916272;29;20055;-78
2023/12/16 09:05:03;;;;;;;46.80;8.20;;;;;;;;;;4909764;29;20092;-77
2023/12/16 09:07:29;;;;;;;38.30;7.15;;;;;;;;;;4912876;29;20056;-78
2023/12/16 09:09:55;;;;;;;53.85;7.15;;;;;;;;;;4913062;29;20028;-78
2023/12/16 09:12:21;;;;;;;60.42;20.52;;;;;;;;;;4914896;29;20088;-76
2023/12/16 09:14:47;;;;;;;56.28;8.75;;;;;;;;;;4913883;29;20032;-75
2023/12/16 09:17:13;;;;;;;53.65;7.53;;;;;;;;;;4913493;29;20032;-73
2023/12/16 09:19:39;;;;;;;48.65;7.93;;;;;;;;;;4914338;29;20028;-78
2023/12/16 09:22:05;;;;;;;45.13;7.32;;;;;;;;;;4903825;29;20044;-77
2023/12/16 09:24:33;;;;;;;41.10;7.88;;;;;;;;;;4911862;29;20063;-79
2023/12/16 09:26:59;;;;;;;45.15;7.72;;;;;;;;;;4912774;29;20107;-76
2023/12/16 09:29:25;;;;;;;47.60;6.97;;;;;;;;;;4914362;29;20024;-81
2023/12/16 09:31:51;;;;;;;50.88;9.90;;;;;;;;;;4912321;29;20374;-76
2023/12/16 09:34:17;;;;;;;51.42;8.73;;;;;;;;;;4913312;29;20474;-78
2023/12/16 09:36:43;;;;;;;35.20;7.78;;;;;;;;;;4914092;29;20567;-76
2023/12/16 09:39:10;;;;;;;37.17;8.15;;;;;;;;;;4912754;29;20475;-76
2023/12/16 09:41:44;;;;;;;43.70;7.88;;;;;;;;;;4899329;29;20134;-79
2023/12/16 09:44:11;;;;;;;37.60;7.97;;;;;;;;;;4912063;29;20383;-75
2023/12/16 09:46:38;;;;;;;67.43;16.20;;;;;;;;;;4918269;29;20128;-76
2023/12/16 09:49:04;;;;;;;52.83;10.57;;;;;;;;;;4912299;29;20020;-77
2023/12/16 09:51:30;;;;;;;42.17;8.38;;;;;;;;;;4914869;29;20486;-80
2023/12/16 09:53:57;;;;;;;55.25;9.20;;;;;;;;;;4908692;29;20032;-82
2023/12/16 09:56:23;;;;;;;40.20;8.00;;;;;;;;;;4909300;29;20055;-78
2023/12/16 09:58:51;;;;;;;56.88;9.50;;;;;;;;;;4913944;29;20043;-76
2023/12/16 10:01:17;;;;;;;41.28;8.23;;;;;;;;;;4923165;29;20050;-76
2023/12/16 10:03:46;;;;;;;52.88;8.80;;;;;;;;;;4918900;29;20049;-80
2023/12/16 10:06:12;;;;;;;47.28;9.40;;;;;;;;;;4925414;29;20484;-76
2023/12/16 10:08:38;;;;;;;59.45;10.80;;;;;;;;;;4907746;29;20044;-80
2023/12/16 10:11:05;;;;;;;50.88;10.98;;;;;;;;;;4909202;29;20115;-79
2023/12/16 10:13:32;;;;;;;50.72;10.52;;;;;;;;;;4896139;29;20115;-76
2023/12/16 10:15:59;;;;;;;53.25;10.65;;;;;;;;;;4902487;29;20115;-77
2023/12/16 10:18:26;;;;;;;58.83;9.85;;;;;;;;;;4907810;29;20040;-77
2023/12/16 10:20:55;;;;;;;54.08;10.95;;;;;;;;;;4901365;29;20051;-76
2023/12/16 10:23:21;;;;;;;48.15;9.10;;;;;;;;;;4908647;29;20031;-77
2023/12/16 10:25:47;;;;;;;45.05;9.07;;;;;;;;;;4907019;29;20390;-80
2023/12/16 10:28:13;;;;;;;66.43;10.25;;;;;;;;;;4910988;29;20032;-75
2023/12/16 10:30:39;;;;;;;54.17;10.98;;;;;;;;;;4907639;29;20048;-79
2023/12/16 10:33:08;;;;;;;50.13;10.88;;;;;;;;;;4908333;29;20095;-76
2023/12/16 10:35:36;;;;;;;51.10;10.05;;;;;;;;;;4910166;29;20087;-75
2023/12/16 10:38:02;;;;;;;54.20;11.70;;;;;;;;;;4911445;29;20427;-75
2023/12/16 10:40:28;;;;;;;47.78;11.15;;;;;;;;;;4909223;29;20048;-77
2023/12/16 10:42:54;;;;;;;40.25;11.25;;;;;;;;;;4909594;29;20028;-77
2023/12/16 10:45:20;;;;;;;43.38;11.60;;;;;;;;;;4910389;29;20047;-77
2023/12/16 10:47:48;;;;;;;42.90;12.18;;;;;;;;;;4908809;29;20471;-77
2023/12/16 10:50:15;;;;;;;37.05;10.75;;;;;;;;;;4909160;29;20084;-76
2023/12/16 10:52:52;;;;;;;43.70;10.95;;;;;;;;;;4907075;29;20091;-75
2023/12/16 10:55:23;;;;;;;36.22;10.13;;;;;;;;;;4901745;29;20036;-76
2023/12/16 10:57:56;;;;;;;43.67;12.93;;;;;;;;;;4903527;29;20033;-75
2023/12/16 11:00:23;;;;;;;37.90;12.10;;;;;;;;;;4898707;29;20041;-77
2023/12/16 11:02:52;;;;;;;40.15;13.40;;;;;;;;;;4911676;29;20139;-75
2023/12/16 11:05:28;;;;;;;41.65;11.13;;;;;;;;;;4909665;29;20039;-75
2023/12/16 11:07:57;;;;;;;51.75;24.95;;;;;;;;;;4897353;29;20031;-78
2023/12/16 11:10:24;;;;;;;26.00;9.88;;;;;;;;;;4899570;29;20036;-76
2023/12/16 11:12:51;;;;;;;27.25;10.10;;;;;;;;;;4911760;29;20079;-77
2023/12/16 11:15:17;;;;;;;31.90;8.63;;;;;;;;;;4909035;29;20494;-76
2023/12/16 11:17:49;;;;;;;28.75;9.15;;;;;;;;;;4912723;29;20037;-79
2023/12/16 11:20:18;;;;;;;36.08;10.32;;;;;;;;;;4895715;29;20104;-77
2023/12/16 11:22:51;;;;;;;26.83;9.55;;;;;;;;;;4897493;29;20035;-80
2023/12/16 11:25:20;;;;;;;26.35;9.75;;;;;;;;;;4909023;29;20028;-77
2023/12/16 11:27:48;;;;;;;26.20;9.82;;;;;;;;;;4910714;29;20518;-78
2023/12/16 11:30:15;;;;;;;23.50;9.20;;;;;;;;;;4909023;29;20040;-78
2023/12/16 11:32:44;;;;;;;28.92;8.52;;;;;;;;;;4899768;29;20083;-79
2023/12/16 11:35:10;;;;;;;28.48;9.35;;;;;;;;;;4913373;29;20048;-76
2023/12/16 11:37:37;;;;;;;21.83;10.75;;;;;;;;;;4911660;29;20043;-79
2023/12/16 11:40:10;;;;;;;24.67;9.40;;;;;;;;;;4903065;29;20490;-76
2023/12/16 11:42:48;;;;;;;28.65;10.02;;;;;;;;;;4912848;29;20024;-75
2023/12/16 11:45:32;;;;;;;23.60;8.77;;;;;;;;;;4914990;29;20454;-76
2023/12/16 11:47:59;;;;;;;18.15;9.90;;;;;;;;;;4902392;29;20513;-77
2023/12/16 11:50:25;;;;;;;20.30;9.00;;;;;;;;;;4916512;29;20043;-76
2023/12/16 11:52:51;;;;;;;21.95;9.30;;;;;;;;;;4905738;29;20028;-78
2023/12/16 11:55:19;;;;;;;16.92;8.65;;;;;;;;;;4912681;29;20043;-77
2023/12/16 11:57:48;;;;;;;18.17;7.88;;;;;;;;;;4904805;29;20067;-79
2023/12/16 12:00:16;;;;;;;20.38;8.13;;;;;;;;;;4913810;29;20130;-77
2023/12/16 12:02:42;;;;;;;20.35;7.85;;;;;;;;;;4898121;29;20028;-76
2023/12/16 12:05:11;;;;;;;21.20;7.60;;;;;;;;;;4908067;29;20066;-76
2023/12/16 12:07:39;;;;;;;17.77;8.20;;;;;;;;;;4915673;29;20062;-76
2023/12/16 12:10:05;;;;;;;22.42;9.63;;;;;;;;;;4913288;29;20406;-76
2023/12/16 12:12:31;;;;;;;22.42;9.30;;;;;;;;;;4910730;29;20036;-77
2023/12/16 12:14:57;;;;;;;23.88;8.55;;;;;;;;;;4916976;29;20024;-77
2023/12/16 12:17:26;;;;;;;20.13;8.20;;;;;;;;;;4934989;29;20079;-77
2023/12/16 12:19:52;;;;;;;19.20;7.57;;;;;;;;;;4934465;29;20023;-76
2023/12/16 12:22:21;;;;;;;23.10;9.30;;;;;;;;;;4913705;29;20032;-76
2023/12/16 12:24:48;;;;;;;20.67;7.97;;;;;;;;;;4915814;29;20032;-77
2023/12/16 12:27:14;;;;;;;24.92;8.70;;;;;;;;;;4907209;29;20046;-76
2023/12/16 12:29:53;;;;;;;22.75;8.52;;;;;;;;;;4915089;29;20028;-76
2023/12/16 12:32:19;;;;;;;25.23;8.77;;;;;;;;;;4933264;29;20035;-78
2023/12/16 12:34:45;;;;;;;21.10;8.55;;;;;;;;;;4916759;29;20074;-78
2023/12/16 12:37:11;;;;;;;18.45;7.68;;;;;;;;;;4900006;29;20439;-74
2023/12/16 12:39:37;;;;;;;26.50;8.55;;;;;;;;;;4902429;29;20499;-77
2023/12/16 12:42:04;;;;;;;16.35;7.93;;;;;;;;;;4904622;29;20070;-76
2023/12/16 12:44:30;;;;;;;20.50;7.82;;;;;;;;;;4913638;29;20036;-76
2023/12/16 12:46:57;;;;;;;22.85;9.18;;;;;;;;;;4929208;29;20063;-76
2023/12/16 12:49:33;;;;;;;21.48;8.10;;;;;;;;;;4933798;29;20493;-76
2023/12/16 12:51:59;;;;;;;26.85;9.65;;;;;;;;;;4932008;29;20111;-77
2023/12/16 12:54:25;;;;;;;19.83;7.10;;;;;;;;;;4900113;29;20099;-78
2023/12/16 12:56:51;;;;;;;21.63;7.95;;;;;;;;;;4906433;29;20066;-77
2023/12/16 12:59:18;;;;;;;21.92;7.47;;;;;;;;;;4903119;29;20064;-76
2023/12/16 13:01:44;;;;;;;20.08;8.30;;;;;;;;;;4910342;29;20497;-79
2023/12/16 13:04:11;;;;;;;23.13;6.95;;;;;;;;;;4914330;29;20642;-78
2023/12/16 13:06:37;;;;;;;19.80;6.47;;;;;;;;;;4914202;29;20036;-77
2023/12/16 13:09:08;;;;;;;19.65;6.95;;;;;;;;;;4915970;29;20024;-76
2023/12/16 13:11:35;;;;;;;17.63;6.47;;;;;;;;;;4911061;29;20500;-79
2023/12/16 13:14:01;;;;;;;21.25;6.47;;;;;;;;;;4909689;29;20028;-77
2023/12/16 13:16:27;;;;;;;13.57;6.13;;;;;;;;;;4921152;29;20036;-79
2023/12/16 13:18:53;;;;;;;16.08;7.07;;;;;;;;;;4913732;29;20028;-77
2023/12/16 13:21:19;;;;;;;20.13;6.57;;;;;;;;;;4915729;29;20055;-76
2023/12/16 13:23:45;;;;;;;13.38;6.13;;;;;;;;;;4915781;29;20032;-81
2023/12/16 13:26:15;;;;;;;17.48;6.20;;;;;;;;;;4912147;29;20055;-79
2023/12/16 13:28:42;;;;;;;16.40;6.47;;;;;;;;;;4905284;29;20107;-78
2023/12/16 13:31:08;;;;;;;14.18;5.65;;;;;;;;;;4919942;29;20056;-76
2023/12/16 13:33:35;;;;;;;20.13;6.05;;;;;;;;;;4902322;29;20051;-78
2023/12/16 13:36:01;;;;;;;13.38;5.90;;;;;;;;;;4914640;29;20039;-82
2023/12/16 13:38:27;;;;;;;20.23;6.28;;;;;;;;;;4913016;29;20040;-76
2023/12/16 13:40:53;;;;;;;14.05;5.80;;;;;;;;;;4912820;29;20559;-75
2023/12/16 13:43:22;;;;;;;16.15;5.38;;;;;;;;;;4896504;29;20068;-75
2023/12/16 13:45:51;;;;;;;15.40;6.50;;;;;;;;;;4917604;29;20035;-79
2023/12/16 13:48:17;;;;;;;20.10;5.95;;;;;;;;;;4912364;29;20123;-76
2023/12/16 13:50:43;;;;;;;20.67;6.00;;;;;;;;;;4914045;29;20398;-76
2023/12/16 13:53:10;;;;;;;20.08;6.50;;;;;;;;;;4910083;29;20063;-78
2023/12/16 13:55:36;;;;;;;15.55;6.35;;;;;;;;;;4896173;29;20065;-80
2023/12/16 13:58:02;;;;;;;17.73;6.78;;;;;;;;;;4912022;29;20501;-76
2023/12/16 14:00:28;;;;;;;19.20;6.97;;;;;;;;;;4913525;29;20324;-76
2023/12/16 14:02:54;;;;;;;22.38;6.82;;;;;;;;;;4917837;29;20044;-76
2023/12/16 14:05:21;;;;;;;23.23;7.55;;;;;;;;;;4914457;29;20024;-76
2023/12/16 14:07:47;;;;;;;16.45;7.38;;;;;;;;;;4913222;29;20383;-77
2023/12/16 14:10:13;;;;;;;14.40;6.55;;;;;;;;;;4913312;29;20581;-78
2023/12/16 14:12:39;;;;;;;25.23;7.18;;;;;;;;;;4910286;29;20510;-75
2023/12/16 14:15:05;;;;;;;18.67;7.40;;;;;;;;;;4913588;29;20415;-75
2023/12/16 14:17:31;;;;;;;16.40;7.55;;;;;;;;;;4921143;29;20114;-75
2023/12/16 14:19:57;;;;;;;11.93;6.60;;;;;;;;;;4914517;29;20032;-77
2023/12/16 14:22:24;;;;;;;28.98;8.20;;;;;;;;;;4914401;29;20028;-75
2023/12/16 14:24:50;;;;;;;14.00;6.18;;;;;;;;;;4911691;29;20107;-77